createdAt,value
2019-01-25T00:01:53.020Z,-2.10
2019-01-25T00:04:22.524Z,-2.10
2019-01-25T00:06:52.018Z,-2.10
2019-01-25T00:09:23.278Z,-2.10
2019-01-25T00:11:52.647Z,-2.00
2019-01-25T00:14:22.119Z,-2.00
2019-01-25T00:16:51.662Z,-2.00
2019-01-25T00:19:21.136Z,-2.00
2019-01-25T00:21:50.754Z,-2.00
2019-01-25T00:24:20.249Z,-2.00
2019-01-25T00:26:50.912Z,-2.00
2019-01-25T00:29:20.900Z,-2.10
2019-01-25T00:31:53.451Z,-2.00
2019-01-25T00:34:22.570Z,-2.00
2019-01-25T00:36:52.076Z,-2.00
2019-01-25T00:39:21.582Z,-2.00
2019-01-25T00:41:51.248Z,-2.00
2019-01-25T00:44:20.830Z,-2.00
2019-01-25T00:46:50.352Z,-2.00
2019-01-25T00:49:19.812Z,-2.00
2019-01-25T00:51:49.402Z,-2.00
2019-01-25T00:54:18.888Z,-2.00
2019-01-25T00:56:48.404Z,-2.00
2019-01-25T00:59:17.828Z,-1.90
2019-01-25T01:01:47.395Z,-1.90
2019-01-25T01:04:16.942Z,-1.90
2019-01-25T01:06:47.556Z,-1.90
2019-01-25T01:09:17.102Z,-1.90
2019-01-25T01:11:46.716Z,-1.90
2019-01-25T01:14:16.176Z,-1.80
2019-01-25T01:16:45.723Z,-1.90
2019-01-25T01:19:15.308Z,-1.90
2019-01-25T01:21:45.134Z,-1.80
2019-01-25T01:24:14.715Z,-1.80
2019-01-25T01:26:45.686Z,-1.70
2019-01-25T01:29:15.257Z,-1.70
2019-01-25T01:31:44.758Z,-1.70
2019-01-25T01:34:14.248Z,-1.70
2019-01-25T01:36:43.741Z,-1.80
2019-01-25T01:39:13.230Z,-1.70
2019-01-25T01:41:42.778Z,-1.70
2019-01-25T01:44:12.276Z,-1.70
2019-01-25T01:46:41.672Z,-1.70
2019-01-25T01:49:11.282Z,-1.70
2019-01-25T01:51:40.750Z,-1.60
2019-01-25T01:54:10.263Z,-1.70
2019-01-25T01:56:42.937Z,-1.60
2019-01-25T01:59:12.482Z,-1.60
2019-01-25T02:01:41.980Z,-1.50
2019-01-25T02:04:11.453Z,-1.50
2019-01-25T02:06:40.933Z,-1.50
2019-01-25T02:09:10.417Z,-1.40
2019-01-25T02:11:39.888Z,-1.40
2019-01-25T02:14:09.524Z,-1.40
2019-01-25T02:16:38.948Z,-1.40
2019-01-25T02:19:09.604Z,-1.40
2019-01-25T02:21:39.049Z,-1.30
2019-01-25T02:24:08.578Z,-1.40
2019-01-25T02:26:38.151Z,-1.40
2019-01-25T02:29:07.618Z,-1.30
2019-01-25T02:31:37.142Z,-1.40
2019-01-25T02:34:06.741Z,-1.30
2019-01-25T02:36:36.158Z,-1.40
2019-01-25T02:39:08.647Z,-1.40
2019-01-25T02:41:38.090Z,-1.40
2019-01-25T02:44:07.528Z,-1.40
2019-01-25T02:46:37.025Z,-1.40
2019-01-25T02:49:06.606Z,-1.40
2019-01-25T02:51:36.148Z,-1.40
2019-01-25T02:54:06.202Z,-1.40
2019-01-25T02:56:35.741Z,-1.40
2019-01-25T02:59:05.569Z,-1.40
2019-01-25T03:01:35.156Z,-1.50
2019-01-25T03:04:04.806Z,-1.50
2019-01-25T03:06:34.226Z,-1.50
2019-01-25T03:09:05.492Z,-1.50
2019-01-25T03:11:35.003Z,-1.50
2019-01-25T03:14:04.651Z,-1.50
2019-01-25T03:16:34.284Z,-1.50
2019-01-25T03:19:03.713Z,-1.60
2019-01-25T03:21:33.207Z,-1.60
2019-01-25T03:24:02.706Z,-1.60
2019-01-25T03:26:32.220Z,-1.60
2019-01-25T03:29:01.626Z,-1.70
2019-01-25T03:31:31.165Z,-1.70
2019-01-25T03:34:00.683Z,-1.70
2019-01-25T03:36:30.196Z,-1.70
2019-01-25T03:38:59.636Z,-1.70
2019-01-25T03:41:29.101Z,-1.70
2019-01-25T03:43:58.519Z,-1.70
2019-01-25T03:46:27.990Z,-1.70
2019-01-25T03:48:57.427Z,-1.70
2019-01-25T03:51:26.915Z,-1.70
2019-01-25T03:53:56.497Z,-1.80
2019-01-25T03:56:27.318Z,-1.80
2019-01-25T03:58:56.706Z,-1.70
2019-01-25T04:01:26.131Z,-1.70
2019-01-25T04:03:55.520Z,-1.70
2019-01-25T04:06:24.955Z,-1.70
2019-01-25T04:08:54.400Z,-1.70
2019-01-25T04:11:23.722Z,-1.70
2019-01-25T04:13:53.134Z,-1.70
2019-01-25T04:16:22.709Z,-1.70
2019-01-25T04:18:52.182Z,-1.70
2019-01-25T04:21:21.590Z,-1.60
2019-01-25T04:23:50.986Z,-1.60
2019-01-25T04:26:20.482Z,-1.50
2019-01-25T04:28:49.903Z,-1.50
2019-01-25T04:31:19.342Z,-1.40
2019-01-25T04:33:48.847Z,-1.40
2019-01-25T04:36:18.329Z,-1.40
2019-01-25T04:38:47.794Z,-1.40
2019-01-25T04:41:17.194Z,-1.40
2019-01-25T04:43:46.608Z,-1.40
2019-01-25T04:46:16.180Z,-1.30
2019-01-25T04:48:45.581Z,-1.40
2019-01-25T04:51:15.066Z,-1.40
2019-01-25T04:53:44.548Z,-1.40
2019-01-25T04:56:14.009Z,-1.50
2019-01-25T04:58:43.442Z,-1.50
2019-01-25T05:01:12.256Z,-1.50
2019-01-25T05:03:41.722Z,-1.60
2019-01-25T05:06:14.308Z,-1.60
2019-01-25T05:08:43.776Z,-1.60
2019-01-25T05:11:19.892Z,-1.60
2019-01-25T05:13:49.185Z,-1.60
2019-01-25T05:16:18.649Z,-1.60
2019-01-25T05:18:48.088Z,-1.50
2019-01-25T05:21:25.027Z,-1.60
2019-01-25T05:23:54.451Z,-1.60
2019-01-25T05:26:23.963Z,-1.60
2019-01-25T05:28:53.413Z,-1.60
2019-01-25T05:31:26.441Z,-1.60
2019-01-25T05:33:57.082Z,-1.50
2019-01-25T05:36:26.553Z,-1.50
2019-01-25T05:38:56.111Z,-1.50
2019-01-25T05:41:28.618Z,-1.60
2019-01-25T05:43:56.631Z,-1.50
2019-01-25T05:46:27.233Z,-1.50
2019-01-25T05:48:56.755Z,-1.60
2019-01-25T05:51:33.423Z,-1.60
2019-01-25T05:53:57.393Z,-1.60
2019-01-25T05:56:26.837Z,-1.60
2019-01-25T05:58:56.311Z,-1.60
2019-01-25T06:01:26.477Z,-1.70
2019-01-25T06:03:56.251Z,-1.70
2019-01-25T06:06:25.672Z,-1.70
2019-01-25T06:08:55.148Z,-1.70
2019-01-25T06:11:24.642Z,-1.70
2019-01-25T06:13:54.183Z,-1.70
2019-01-25T06:16:23.608Z,-1.70
2019-01-25T06:18:53.102Z,-1.60
2019-01-25T06:21:22.600Z,-1.60
2019-01-25T06:23:55.079Z,-1.70
2019-01-25T06:26:24.485Z,-1.70
2019-01-25T06:28:53.982Z,-1.70
2019-01-25T06:31:23.389Z,-1.70
2019-01-25T06:33:52.910Z,-1.70
2019-01-25T06:36:22.702Z,-1.70
2019-01-25T06:38:52.185Z,-1.80
2019-01-25T06:41:21.654Z,-1.80
2019-01-25T06:43:52.566Z,-1.80
2019-01-25T06:46:22.055Z,-1.80
2019-01-25T06:48:51.512Z,-1.80
2019-01-25T06:51:20.941Z,-1.80
2019-01-25T06:53:50.324Z,-1.80
2019-01-25T06:56:19.782Z,-1.80
2019-01-25T06:58:58.646Z,-1.80
2019-01-25T07:01:32.828Z,-1.80
2019-01-25T07:04:02.250Z,-1.80
2019-01-25T07:06:32.774Z,-1.80
2019-01-25T07:09:02.236Z,-1.80
2019-01-25T07:11:31.670Z,-1.80
2019-01-25T07:14:02.378Z,-1.80
2019-01-25T07:16:31.878Z,-1.80
2019-01-25T07:19:01.323Z,-1.80
2019-01-25T07:21:32.186Z,-1.70
2019-01-25T07:24:03.019Z,-1.80
2019-01-25T07:26:32.523Z,-1.70
2019-01-25T07:29:03.239Z,-1.70
2019-01-25T07:31:32.712Z,-1.70
2019-01-25T07:34:02.186Z,-1.70
2019-01-25T07:36:31.676Z,-1.70
2019-01-25T07:39:02.971Z,-1.70
2019-01-25T07:41:33.787Z,-1.60
2019-01-25T07:44:03.614Z,-1.60
2019-01-25T07:46:35.832Z,-1.60
2019-01-25T07:49:05.431Z,-1.60
2019-01-25T07:51:34.874Z,-1.50
2019-01-25T07:54:06.504Z,-1.50
2019-01-25T07:56:35.985Z,-1.50
2019-01-25T07:59:05.441Z,-1.50
2019-01-25T08:01:34.915Z,-1.50
2019-01-25T08:04:05.021Z,-1.40
2019-01-25T08:06:34.417Z,-1.40
2019-01-25T08:09:05.704Z,-1.30
2019-01-25T08:11:35.163Z,-1.30
2019-01-25T08:14:05.316Z,-1.30
2019-01-25T08:16:35.993Z,-1.20
2019-01-25T08:19:05.430Z,-1.10
2019-01-25T08:21:36.151Z,-1.10
2019-01-25T08:24:05.786Z,-1.10
2019-01-25T08:26:35.297Z,-1.10
2019-01-25T08:29:04.931Z,-1.10
2019-01-25T08:31:34.501Z,-1.00
2019-01-25T08:34:07.151Z,-0.90
2019-01-25T08:36:36.727Z,-0.90
2019-01-25T08:39:09.548Z,-0.80
2019-01-25T08:41:39.144Z,-0.80
2019-01-25T08:44:08.677Z,-0.80
2019-01-25T08:46:38.356Z,-0.80
2019-01-25T08:49:07.903Z,-0.70
2019-01-25T08:51:37.580Z,-0.70
2019-01-25T08:54:07.249Z,-0.60
2019-01-25T08:56:38.419Z,-0.60
2019-01-25T08:59:08.035Z,-0.50
2019-01-25T09:01:37.503Z,-0.50
2019-01-25T09:04:07.042Z,-0.50
2019-01-25T09:06:36.542Z,-0.50
2019-01-25T09:09:10.345Z,-0.40
2019-01-25T09:11:39.876Z,-0.40
2019-01-25T09:14:09.363Z,-0.30
2019-01-25T09:16:38.848Z,-0.30
2019-01-25T09:19:08.492Z,-0.30
2019-01-25T09:21:38.018Z,-0.30
2019-01-25T09:24:07.490Z,-0.20
2019-01-25T09:26:36.998Z,-0.20
2019-01-25T09:29:06.427Z,-0.10
2019-01-25T09:31:35.904Z,0.00
2019-01-25T09:34:06.007Z,0.10
2019-01-25T09:36:35.548Z,0.10
2019-01-25T09:39:08.666Z,0.20
2019-01-25T09:41:39.510Z,0.20
2019-01-25T09:44:13.300Z,0.20
2019-01-25T09:46:45.972Z,0.20
2019-01-25T09:49:16.654Z,0.30
2019-01-25T09:51:48.311Z,0.30
2019-01-25T09:54:17.862Z,0.20
2019-01-25T09:56:47.434Z,0.20
2019-01-25T09:59:19.780Z,0.20
2019-01-25T10:01:49.972Z,0.20
2019-01-25T10:04:20.754Z,0.30
2019-01-25T10:06:50.310Z,0.30
2019-01-25T10:09:24.679Z,0.30
2019-01-25T10:11:54.872Z,0.30
2019-01-25T10:14:24.949Z,0.30
2019-01-25T10:16:54.591Z,0.40
2019-01-25T10:19:24.424Z,0.40
2019-01-25T10:21:54.158Z,0.40
2019-01-25T10:24:23.911Z,0.50
2019-01-25T10:26:53.760Z,0.50
2019-01-25T10:29:23.453Z,0.50
2019-01-25T10:31:56.523Z,0.50
2019-01-25T10:34:29.336Z,0.50
2019-01-25T10:36:59.426Z,0.40
2019-01-25T10:39:29.203Z,0.40
2019-01-25T10:41:59.340Z,0.40
2019-01-25T10:44:31.261Z,0.40
2019-01-25T10:47:00.785Z,0.50
2019-01-25T10:49:30.314Z,0.50
2019-01-25T10:52:00.482Z,0.50
2019-01-25T10:54:30.343Z,0.50
2019-01-25T10:56:59.803Z,0.50
2019-01-25T10:59:29.429Z,0.50
2019-01-25T11:01:58.888Z,0.50
2019-01-25T11:04:28.364Z,0.60
2019-01-25T11:06:59.862Z,0.70
2019-01-25T11:09:28.980Z,0.80
2019-01-25T11:11:58.478Z,0.90
2019-01-25T11:14:28.020Z,0.90
2019-01-25T11:16:57.448Z,1.00
2019-01-25T11:19:26.945Z,1.00
2019-01-25T11:21:56.436Z,0.90
2019-01-25T11:24:26.006Z,0.90
2019-01-25T11:27:00.275Z,0.90
2019-01-25T11:29:26.585Z,1.00
2019-01-25T11:31:57.526Z,1.00
2019-01-25T11:34:26.947Z,1.00
2019-01-25T11:36:56.473Z,1.00
2019-01-25T11:39:25.937Z,1.00
2019-01-25T11:41:55.390Z,1.00
2019-01-25T11:44:24.890Z,1.00
2019-01-25T11:46:54.419Z,1.10
2019-01-25T11:49:23.965Z,1.20
2019-01-25T11:51:53.500Z,1.10
2019-01-25T11:54:22.990Z,1.10
2019-01-25T11:56:52.473Z,1.10
2019-01-25T11:59:21.937Z,1.20
2019-01-25T12:01:51.388Z,1.20
2019-01-25T12:04:22.016Z,1.20
2019-01-25T12:06:51.429Z,1.20
2019-01-25T12:09:20.885Z,1.20
2019-01-25T12:11:50.378Z,1.30
2019-01-25T12:14:19.866Z,1.30
2019-01-25T12:16:49.337Z,1.30
2019-01-25T12:19:18.814Z,1.40
2019-01-25T12:21:48.744Z,1.40
2019-01-25T12:24:18.262Z,1.40
2019-01-25T12:26:47.681Z,1.50
2019-01-25T12:29:17.101Z,1.50
2019-01-25T12:31:46.590Z,1.40
2019-01-25T12:34:16.423Z,1.30
2019-01-25T12:36:46.318Z,1.40
2019-01-25T12:39:15.807Z,1.30
2019-01-25T12:41:45.310Z,1.30
2019-01-25T12:44:14.765Z,1.30
2019-01-25T12:46:44.230Z,1.30
2019-01-25T12:49:13.685Z,1.20
2019-01-25T12:51:53.197Z,1.10
2019-01-25T12:54:22.611Z,1.00
2019-01-25T12:56:53.218Z,1.00
2019-01-25T12:59:22.630Z,1.00
2019-01-25T13:01:52.189Z,1.10
2019-01-25T13:04:21.677Z,1.10
2019-01-25T13:06:51.170Z,1.10
2019-01-25T13:09:20.594Z,1.10
2019-01-25T13:11:50.090Z,1.00
2019-01-25T13:14:19.494Z,1.10
2019-01-25T13:16:50.679Z,1.00
2019-01-25T13:19:20.238Z,1.00
2019-01-25T13:21:49.698Z,0.90
2019-01-25T13:24:19.236Z,0.90
2019-01-25T13:26:48.684Z,0.90
2019-01-25T13:29:18.137Z,0.70
2019-01-25T13:31:47.589Z,0.60
2019-01-25T13:34:17.132Z,0.60
2019-01-25T13:36:46.620Z,0.50
2019-01-25T13:39:16.123Z,0.50
2019-01-25T13:41:45.534Z,0.50
2019-01-25T13:44:16.143Z,0.40
2019-01-25T13:46:46.508Z,0.40
2019-01-25T13:49:16.054Z,0.40
2019-01-25T13:51:45.555Z,0.30
2019-01-25T13:54:15.006Z,0.30
2019-01-25T13:56:44.434Z,0.20
2019-01-25T13:59:13.902Z,0.30
2019-01-25T14:01:43.364Z,0.30
2019-01-25T14:04:12.878Z,0.30
2019-01-25T14:06:42.260Z,0.30
2019-01-25T14:09:11.822Z,0.30
2019-01-25T14:11:41.263Z,0.30
2019-01-25T14:14:10.800Z,0.30
2019-01-25T14:16:40.296Z,0.30
2019-01-25T14:19:10.890Z,0.20
2019-01-25T14:21:40.251Z,0.20
2019-01-25T14:24:09.643Z,0.30
2019-01-25T14:26:39.002Z,0.30
2019-01-25T14:29:08.863Z,0.10
2019-01-25T14:31:38.287Z,0.10
2019-01-25T14:34:07.680Z,0.00
2019-01-25T14:36:37.058Z,0.00
2019-01-25T14:39:08.698Z,0.00
2019-01-25T14:41:38.154Z,-0.10
2019-01-25T14:44:07.499Z,-0.10
2019-01-25T14:46:36.932Z,-0.10
2019-01-25T14:49:06.362Z,-0.10
2019-01-25T14:51:35.759Z,-0.10
2019-01-25T14:54:05.529Z,-0.20
2019-01-25T14:56:34.994Z,-0.20
2019-01-25T14:59:05.640Z,-0.20
2019-01-25T15:01:35.009Z,-0.20
2019-01-25T15:04:04.417Z,-0.20
2019-01-25T15:06:33.757Z,-0.20
2019-01-25T15:09:04.049Z,-0.30
2019-01-25T15:11:33.383Z,-0.30
2019-01-25T15:14:02.835Z,-0.40
2019-01-25T15:16:32.166Z,-0.30
2019-01-25T15:19:02.320Z,-0.40
2019-01-25T15:21:31.734Z,-0.30
2019-01-25T15:24:06.343Z,-0.40
2019-01-25T15:26:35.681Z,-0.50
2019-01-25T15:29:05.169Z,-0.60
2019-01-25T15:31:34.617Z,-0.60
2019-01-25T15:34:05.350Z,-0.70
2019-01-25T15:36:34.674Z,-0.70
2019-01-25T15:39:05.830Z,-0.70
2019-01-25T15:41:35.184Z,-0.70
2019-01-25T15:44:09.978Z,-0.70
2019-01-25T15:46:35.760Z,-0.70
2019-01-25T15:49:05.254Z,-0.70
2019-01-25T15:51:34.698Z,-0.80
2019-01-25T15:54:04.380Z,-0.90
2019-01-25T15:56:33.824Z,-0.90
2019-01-25T15:59:03.204Z,-0.90
2019-01-25T16:01:32.562Z,-1.00
2019-01-25T16:04:01.891Z,-1.00
2019-01-25T16:06:31.287Z,-1.00
2019-01-25T16:09:00.599Z,-1.00
2019-01-25T16:11:30.054Z,-1.00
2019-01-25T16:13:59.462Z,-1.00
2019-01-25T16:16:28.940Z,-1.10
2019-01-25T16:18:58.286Z,-1.00
2019-01-25T16:21:27.654Z,-1.00
2019-01-25T16:23:57.030Z,-1.10
2019-01-25T16:26:26.406Z,-1.10
2019-01-25T16:28:55.758Z,-1.20
2019-01-25T16:31:25.269Z,-1.20
2019-01-25T16:33:54.676Z,-1.20
2019-01-25T16:36:24.102Z,-1.20
2019-01-25T16:38:53.464Z,-1.30
2019-01-25T16:41:22.914Z,-1.30
2019-01-25T16:43:52.374Z,-1.30
2019-01-25T16:46:21.749Z,-1.30
2019-01-25T16:48:51.178Z,-1.30
2019-01-25T16:51:20.632Z,-1.30
2019-01-25T16:53:49.980Z,-1.40
2019-01-25T16:56:19.354Z,-1.40
2019-01-25T16:58:48.699Z,-1.40
2019-01-25T17:01:18.128Z,-1.40
2019-01-25T17:03:47.470Z,-1.40
2019-01-25T17:06:16.863Z,-1.40
2019-01-25T17:08:46.312Z,-1.40
2019-01-25T17:11:15.673Z,-1.40
2019-01-25T17:13:44.994Z,-1.40
2019-01-25T17:16:14.470Z,-1.40
2019-01-25T17:18:43.880Z,-1.40
2019-01-25T17:21:13.320Z,-1.40
2019-01-25T17:23:42.658Z,-1.40
2019-01-25T17:26:12.058Z,-1.50
2019-01-25T17:28:41.455Z,-1.50
2019-01-25T17:31:10.918Z,-1.50
2019-01-25T17:33:40.360Z,-1.40
2019-01-25T17:36:09.794Z,-1.40
2019-01-25T17:38:39.146Z,-1.40
2019-01-25T17:41:08.643Z,-1.40
2019-01-25T17:43:38.038Z,-1.30
2019-01-25T17:46:07.391Z,-1.40
2019-01-25T17:48:36.750Z,-1.40
2019-01-25T17:51:06.138Z,-1.30
2019-01-25T17:53:35.469Z,-1.30
2019-01-25T17:56:04.866Z,-1.40
2019-01-25T17:58:34.177Z,-1.40
2019-01-25T18:01:03.561Z,-1.30
2019-01-25T18:03:32.989Z,-1.30
2019-01-25T18:06:03.454Z,-1.30
2019-01-25T18:08:32.809Z,-1.30
2019-01-25T18:11:03.075Z,-1.30
2019-01-25T18:13:32.430Z,-1.30
2019-01-25T18:16:05.304Z,-1.30
2019-01-25T18:18:35.228Z,-1.30
2019-01-25T18:21:04.594Z,-1.30
2019-01-25T18:23:33.923Z,-1.30
2019-01-25T18:26:25.114Z,-1.30
2019-01-25T18:29:16.936Z,-1.40
2019-01-25T18:31:47.501Z,-1.40
2019-01-25T18:34:17.009Z,-1.40
2019-01-25T18:36:46.425Z,-1.40
2019-01-25T18:39:15.748Z,-1.40
2019-01-25T18:41:45.145Z,-1.50
2019-01-25T18:44:14.637Z,-1.50
2019-01-25T18:46:44.068Z,-1.50
2019-01-25T18:49:13.473Z,-1.50
2019-01-25T18:51:43.194Z,-1.50
2019-01-25T18:54:12.649Z,-1.50
2019-01-25T18:56:44.651Z,-1.50
2019-01-25T18:59:14.037Z,-1.50
2019-01-25T19:01:43.496Z,-1.60
2019-01-25T19:04:12.950Z,-1.60
2019-01-25T19:06:42.365Z,-1.60
2019-01-25T19:09:12.213Z,-1.60
2019-01-25T19:11:43.231Z,-1.50
2019-01-25T19:14:13.773Z,-1.50
2019-01-25T19:16:44.435Z,-1.50
2019-01-25T19:19:13.785Z,-1.50
2019-01-25T19:21:43.659Z,-1.50
2019-01-25T19:24:13.159Z,-1.50
2019-01-25T19:26:42.623Z,-1.50
2019-01-25T19:29:12.061Z,-1.60
2019-01-25T19:31:41.576Z,-1.60
2019-01-25T19:34:11.046Z,-1.60
2019-01-25T19:36:40.566Z,-1.60
2019-01-25T19:39:13.392Z,-1.70
2019-01-25T19:41:42.868Z,-1.60
2019-01-25T19:44:12.416Z,-1.70
2019-01-25T19:46:41.918Z,-1.70
2019-01-25T19:49:11.278Z,-1.70
2019-01-25T19:51:40.734Z,-1.70
2019-01-25T19:54:10.280Z,-1.70
2019-01-25T19:56:39.822Z,-1.70
2019-01-25T19:59:09.244Z,-1.70
2019-01-25T20:01:38.698Z,-1.80
2019-01-25T20:04:08.053Z,-1.80
2019-01-25T20:06:37.488Z,-1.80
2019-01-25T20:09:09.809Z,-1.80
2019-01-25T20:11:39.201Z,-1.80
2019-01-25T20:14:08.706Z,-1.80
2019-01-25T20:16:38.068Z,-1.80
2019-01-25T20:19:07.536Z,-1.80
2019-01-25T20:21:36.936Z,-1.80
2019-01-25T20:24:06.319Z,-1.80
2019-01-25T20:26:35.696Z,-1.80
2019-01-25T20:29:05.234Z,-1.90
2019-01-25T20:31:34.568Z,-1.90
2019-01-25T20:34:06.150Z,-1.90
2019-01-25T20:36:35.566Z,-1.90
2019-01-25T20:39:08.142Z,-1.90
2019-01-25T20:41:37.490Z,-1.90
2019-01-25T20:44:06.942Z,-1.80
2019-01-25T20:46:36.299Z,-1.80
2019-01-25T20:49:05.994Z,-1.80
2019-01-25T20:51:35.348Z,-1.90
2019-01-25T20:54:05.046Z,-1.90
2019-01-25T20:56:34.504Z,-1.90
2019-01-25T20:59:03.920Z,-1.90
2019-01-25T21:01:33.336Z,-1.90
2019-01-25T21:04:02.736Z,-1.90
2019-01-25T21:06:32.134Z,-1.90
2019-01-25T21:09:05.094Z,-1.90
2019-01-25T21:11:34.542Z,-1.90
2019-01-25T21:14:04.438Z,-1.80
2019-01-25T21:16:33.955Z,-1.80
2019-01-25T21:19:10.179Z,-1.80
2019-01-25T21:21:41.669Z,-1.80
2019-01-25T21:24:11.291Z,-1.80
2019-01-25T21:26:41.198Z,-1.90
2019-01-25T21:29:10.805Z,-1.90
2019-01-25T21:31:40.770Z,-1.90
2019-01-25T21:34:10.268Z,-1.90
2019-01-25T21:36:40.232Z,-1.90
2019-01-25T21:39:10.761Z,-2.00
2019-01-25T21:41:40.240Z,-2.00
2019-01-25T21:44:09.860Z,-2.00
2019-01-25T21:46:40.407Z,-2.00
2019-01-25T21:49:10.514Z,-2.00
2019-01-25T21:51:39.898Z,-2.10
2019-01-25T21:54:09.280Z,-2.10
2019-01-25T21:56:38.766Z,-2.00
2019-01-25T21:59:08.357Z,-2.10
2019-01-25T22:01:38.113Z,-2.00
2019-01-25T22:04:07.738Z,-2.10
2019-01-25T22:06:37.086Z,-2.10
2019-01-25T22:09:11.442Z,-2.10
2019-01-25T22:11:41.054Z,-2.10
2019-01-25T22:14:10.594Z,-2.10
2019-01-25T22:16:40.022Z,-2.10
2019-01-25T22:19:09.387Z,-2.00
2019-01-25T22:21:39.167Z,-2.00
2019-01-25T22:24:08.573Z,-2.10
2019-01-25T22:26:41.263Z,-2.10
2019-01-25T22:29:10.749Z,-2.20
2019-01-25T22:31:40.341Z,-2.20
2019-01-25T22:34:10.001Z,-2.20
2019-01-25T22:36:39.424Z,-2.10
2019-01-25T22:39:09.718Z,-2.10
2019-01-25T22:41:39.052Z,-2.10
2019-01-25T22:44:10.725Z,-2.10
2019-01-25T22:46:40.059Z,-2.10
2019-01-25T22:49:09.494Z,-2.10
2019-01-25T22:51:38.931Z,-2.10
2019-01-25T22:54:08.336Z,-2.20
2019-01-25T22:56:37.671Z,-2.10
2019-01-25T22:59:07.066Z,-2.10
2019-01-25T23:01:36.988Z,-2.10
2019-01-25T23:04:47.198Z,-2.00
2019-01-25T23:07:36.582Z,-2.10
2019-01-25T23:10:19.666Z,-2.00
2019-01-25T23:12:49.013Z,-2.10
2019-01-25T23:15:19.144Z,-2.00
2019-01-25T23:17:48.577Z,-2.00
2019-01-25T23:20:18.175Z,-2.00
2019-01-25T23:22:47.519Z,-2.00
2019-01-25T23:25:16.884Z,-2.00
2019-01-25T23:27:46.261Z,-1.90
2019-01-25T23:30:17.869Z,-2.00
2019-01-25T23:32:47.244Z,-2.00
2019-01-25T23:35:16.586Z,-1.90
2019-01-25T23:37:45.965Z,-1.90
2019-01-25T23:40:16.086Z,-1.80
2019-01-25T23:42:45.456Z,-1.90
2019-01-25T23:45:14.808Z,-1.90
2019-01-25T23:47:44.235Z,-1.90
2019-01-25T23:50:13.714Z,-1.90
2019-01-25T23:52:43.186Z,-1.90
2019-01-25T23:55:12.639Z,-1.80
2019-01-25T23:57:42.080Z,-1.80
